WAT5229 ZSPD-EDDK
Flight info
| Callsign | WAT5229 |
|---|---|
| Flight time | N/A |
| Altitude | 27600 |
| Route | PIK94D PIKAS G330 UNTAN G345 OLRIS R343 MADUK W51 LEGIV W164 ADGOL W50 IDUKI/K0937S0920 W50 XSH W80 IDGAG A581 QNX W136 XISLI A581 SGM A599 LINSO/N0511F300 A599 CHILA/N0507F320 A599 CTG B465 CEA A791 BPL L639 LAXOM/N0499F340 L639 RASKI L301 RAGMA N571 ALPOB L768 VATIM L550 RASMO/N0485F360 L550 NOVPA N697 MENLI L677 CVO L617 TANSA UL613 KOR/N0474F380 UL613 YNN UL611 TUMBO DCT NERRA DCT VEKEN DCT ERKIR/N0488F300 DCT VEKIR DCT UMDAS T844 ASKIK T840 GULKO GULKO1B |
| Aircraft | B77L/H-SDE1E2E3FGHIJ2J3J4J5M1RWXY/LB1D1 |
Departure
| Time | 2026-05-07 07:38 |
|---|---|
| Airport | Shanghai Pudong International Airport (ZSPD) |
Arrival
| Time | N/A |
|---|---|
| Airport | Cologne Bonn Airport (EDDK) |
| Time | Latitude | Longitude | Altitude | Speed | Heading |
|---|---|---|---|---|---|
| 2026-05-07 07:03 | 31.15940 | 121.79105 | 27 ft | 0 kts | 72° |
| 2026-05-07 07:23 | 31.15939 | 121.79102 | 27 ft | 3 kts | 72° |
| 2026-05-07 07:24 | 31.15932 | 121.79072 | 27 ft | 4 kts | 79° |
| 2026-05-07 07:24 | 31.15929 | 121.79041 | 25 ft | 4 kts | 91° |
| 2026-05-07 07:24 | 31.15933 | 121.79011 | 27 ft | 4 kts | 119° |
| 2026-05-07 07:24 | 31.15946 | 121.78995 | 25 ft | 0 kts | 162° |
| 2026-05-07 07:27 | 31.15944 | 121.78996 | 25 ft | 1 kts | 162° |
| 2026-05-07 07:28 | 31.15908 | 121.79009 | 25 ft | 10 kts | 162° |
| 2026-05-07 07:28 | 31.15837 | 121.79036 | 27 ft | 11 kts | 162° |
| 2026-05-07 07:28 | 31.15763 | 121.79064 | 27 ft | 11 kts | 162° |
| 2026-05-07 07:28 | 31.15688 | 121.79092 | 27 ft | 11 kts | 162° |
| 2026-05-07 07:29 | 31.15624 | 121.79049 | 27 ft | 12 kts | 231° |
| 2026-05-07 07:29 | 31.15546 | 121.79036 | 27 ft | 13 kts | 161° |
| 2026-05-07 07:29 | 31.15462 | 121.79068 | 27 ft | 13 kts | 162° |
| 2026-05-07 07:29 | 31.15379 | 121.79099 | 27 ft | 13 kts | 162° |
| 2026-05-07 07:30 | 31.15296 | 121.79130 | 26 ft | 13 kts | 162° |
| 2026-05-07 07:30 | 31.15212 | 121.79162 | 27 ft | 13 kts | 162° |
| 2026-05-07 07:30 | 31.15129 | 121.79194 | 27 ft | 13 kts | 162° |
| 2026-05-07 07:30 | 31.15046 | 121.79225 | 27 ft | 13 kts | 162° |
| 2026-05-07 07:31 | 31.14962 | 121.79257 | 28 ft | 13 kts | 162° |
| 2026-05-07 07:31 | 31.14879 | 121.79288 | 28 ft | 13 kts | 162° |
| 2026-05-07 07:31 | 31.14795 | 121.79320 | 28 ft | 13 kts | 162° |
| 2026-05-07 07:31 | 31.14712 | 121.79351 | 28 ft | 13 kts | 162° |
| 2026-05-07 07:32 | 31.14629 | 121.79382 | 28 ft | 13 kts | 162° |
| 2026-05-07 07:32 | 31.14545 | 121.79414 | 27 ft | 13 kts | 162° |
| 2026-05-07 07:32 | 31.14462 | 121.79445 | 27 ft | 13 kts | 162° |
| 2026-05-07 07:32 | 31.14378 | 121.79477 | 27 ft | 13 kts | 162° |
| 2026-05-07 07:33 | 31.14287 | 121.79512 | 27 ft | 14 kts | 162° |
| 2026-05-07 07:33 | 31.14191 | 121.79548 | 27 ft | 14 kts | 162° |
| 2026-05-07 07:33 | 31.14095 | 121.79584 | 27 ft | 14 kts | 162° |
| 2026-05-07 07:33 | 31.13999 | 121.79620 | 27 ft | 14 kts | 162° |
| 2026-05-07 07:34 | 31.13903 | 121.79657 | 27 ft | 14 kts | 162° |
| 2026-05-07 07:34 | 31.13805 | 121.79693 | 27 ft | 15 kts | 162° |
| 2026-05-07 07:34 | 31.13705 | 121.79731 | 27 ft | 16 kts | 162° |
| 2026-05-07 07:34 | 31.13596 | 121.79772 | 26 ft | 17 kts | 162° |
| 2026-05-07 07:35 | 31.13475 | 121.79818 | 27 ft | 19 kts | 162° |
| 2026-05-07 07:35 | 31.13344 | 121.79868 | 27 ft | 21 kts | 162° |
| 2026-05-07 07:35 | 31.13203 | 121.79920 | 26 ft | 22 kts | 163° |
| 2026-05-07 07:35 | 31.13060 | 121.79975 | 27 ft | 22 kts | 162° |
| 2026-05-07 07:36 | 31.12918 | 121.80028 | 27 ft | 22 kts | 162° |
| 2026-05-07 07:36 | 31.12796 | 121.80071 | 27 ft | 15 kts | 178° |
| 2026-05-07 07:36 | 31.12734 | 121.79977 | 27 ft | 16 kts | 252° |
| 2026-05-07 07:36 | 31.12764 | 121.79869 | 27 ft | 17 kts | 338° |
| 2026-05-07 07:37 | 31.12890 | 121.79819 | 27 ft | 26 kts | 342° |
| 2026-05-07 07:37 | 31.13204 | 121.79701 | 27 ft | 81 kts | 342° |
| 2026-05-07 07:37 | 31.13972 | 121.79412 | 29 ft | 149 kts | 342° |
| 2026-05-07 07:37 | 31.15153 | 121.78972 | 36 ft | 202 kts | 344° |
| 2026-05-07 07:38 | 31.16514 | 121.78452 | 432 ft | 208 kts | 341° |
| 2026-05-07 07:38 | 31.17897 | 121.77879 | 925 ft | 212 kts | 340° |
| 2026-05-07 07:38 | 31.19266 | 121.77297 | 1674 ft | 208 kts | 340° |
| 2026-05-07 07:38 | 31.20186 | 121.76915 | 1929 ft | 218 kts | 342° |
| 2026-05-07 07:39 | 31.21732 | 121.76414 | 1928 ft | 239 kts | 345° |
| 2026-05-07 07:39 | 31.23331 | 121.75707 | 2133 ft | 255 kts | 340° |
| 2026-05-07 07:39 | 31.25022 | 121.75002 | 2602 ft | 261 kts | 339° |
| 2026-05-07 07:39 | 31.26747 | 121.74275 | 3181 ft | 266 kts | 339° |
| 2026-05-07 07:40 | 31.28503 | 121.73553 | 3862 ft | 268 kts | 340° |
| 2026-05-07 07:40 | 31.30267 | 121.72838 | 4564 ft | 269 kts | 340° |
| 2026-05-07 07:40 | 31.32048 | 121.72119 | 5218 ft | 272 kts | 340° |
| 2026-05-07 07:40 | 31.33853 | 121.71390 | 5838 ft | 276 kts | 339° |
| 2026-05-07 07:41 | 31.35678 | 121.70664 | 6467 ft | 278 kts | 340° |
| 2026-05-07 07:41 | 31.37527 | 121.69959 | 7062 ft | 281 kts | 340° |
| 2026-05-07 07:41 | 31.39393 | 121.69251 | 7661 ft | 283 kts | 340° |
| 2026-05-07 07:41 | 31.41274 | 121.68535 | 8280 ft | 286 kts | 339° |
| 2026-05-07 07:42 | 31.43174 | 121.67810 | 8867 ft | 288 kts | 339° |
| 2026-05-07 07:42 | 31.45085 | 121.67079 | 9453 ft | 291 kts | 339° |
| 2026-05-07 07:42 | 31.47018 | 121.66344 | 10014 ft | 293 kts | 339° |
| 2026-05-07 07:42 | 31.48988 | 121.65596 | 10363 ft | 305 kts | 339° |
| 2026-05-07 07:43 | 31.51042 | 121.64813 | 10489 ft | 324 kts | 338° |
| 2026-05-07 07:43 | 31.53245 | 121.63974 | 10639 ft | 342 kts | 338° |
| 2026-05-07 07:43 | 31.55433 | 121.62820 | 10722 ft | 351 kts | 320° |
| 2026-05-07 07:43 | 31.57192 | 121.60812 | 10930 ft | 357 kts | 310° |
| 2026-05-07 07:44 | 31.58914 | 121.58670 | 11393 ft | 365 kts | 311° |
| 2026-05-07 07:44 | 31.60702 | 121.56527 | 12019 ft | 369 kts | 311° |
| 2026-05-07 07:44 | 31.62508 | 121.54384 | 12710 ft | 370 kts | 311° |
| 2026-05-07 07:44 | 31.64326 | 121.52232 | 13368 ft | 373 kts | 311° |
| 2026-05-07 07:45 | 31.66169 | 121.50049 | 13901 ft | 378 kts | 312° |
| 2026-05-07 07:45 | 31.68029 | 121.47848 | 14446 ft | 381 kts | 311° |
| 2026-05-07 07:45 | 31.69900 | 121.45633 | 15053 ft | 382 kts | 311° |
| 2026-05-07 07:45 | 31.71773 | 121.43412 | 15650 ft | 384 kts | 311° |
| 2026-05-07 07:46 | 31.73656 | 121.41177 | 16204 ft | 386 kts | 311° |
| 2026-05-07 07:46 | 31.75548 | 121.38928 | 16740 ft | 389 kts | 311° |
| 2026-05-07 07:46 | 31.77456 | 121.36657 | 17270 ft | 391 kts | 311° |
| 2026-05-07 07:46 | 31.79372 | 121.34376 | 17811 ft | 393 kts | 311° |
| 2026-05-07 07:47 | 31.81300 | 121.32079 | 18306 ft | 396 kts | 311° |
| 2026-05-07 07:47 | 31.83238 | 121.29769 | 18730 ft | 398 kts | 311° |
| 2026-05-07 07:47 | 31.85194 | 121.27437 | 19124 ft | 402 kts | 311° |
| 2026-05-07 07:47 | 31.87166 | 121.25085 | 19511 ft | 405 kts | 311° |
| 2026-05-07 07:48 | 31.89150 | 121.22716 | 19919 ft | 408 kts | 310° |
| 2026-05-07 07:48 | 31.91150 | 121.20326 | 20329 ft | 411 kts | 310° |
| 2026-05-07 07:48 | 31.93160 | 121.17924 | 20745 ft | 413 kts | 310° |
| 2026-05-07 07:48 | 31.95179 | 121.15509 | 21153 ft | 415 kts | 310° |
| 2026-05-07 07:49 | 31.97212 | 121.13076 | 21558 ft | 418 kts | 310° |
| 2026-05-07 07:49 | 31.99254 | 121.10630 | 21939 ft | 420 kts | 310° |
| 2026-05-07 07:49 | 32.01311 | 121.08165 | 22331 ft | 423 kts | 310° |
| 2026-05-07 07:49 | 32.03376 | 121.05688 | 22721 ft | 425 kts | 310° |
| 2026-05-07 07:50 | 32.05453 | 121.03195 | 23108 ft | 427 kts | 310° |
| 2026-05-07 07:50 | 32.07543 | 121.00685 | 23475 ft | 430 kts | 310° |
| 2026-05-07 07:50 | 32.09514 | 120.98065 | 23707 ft | 426 kts | 300° |
| 2026-05-07 07:50 | 32.10804 | 120.94949 | 23927 ft | 421 kts | 284° |
| 2026-05-07 07:51 | 32.11626 | 120.91636 | 24197 ft | 422 kts | 284° |
| 2026-05-07 07:51 | 32.12507 | 120.88324 | 24505 ft | 424 kts | 285° |
| 2026-05-07 07:51 | 32.13427 | 120.85015 | 24840 ft | 425 kts | 286° |
| 2026-05-07 07:51 | 32.14361 | 120.81695 | 25182 ft | 427 kts | 286° |
| 2026-05-07 07:52 | 32.15292 | 120.78369 | 25500 ft | 428 kts | 285° |
| 2026-05-07 07:52 | 32.16224 | 120.75022 | 25814 ft | 430 kts | 285° |
| 2026-05-07 07:52 | 32.17007 | 120.71624 | 26103 ft | 429 kts | 277° |
| 2026-05-07 07:52 | 32.17333 | 120.68125 | 26370 ft | 430 kts | 273° |
| 2026-05-07 07:53 | 32.17553 | 120.64594 | 26665 ft | 432 kts | 273° |
| 2026-05-07 07:53 | 32.17781 | 120.61055 | 26993 ft | 433 kts | 274° |
| 2026-05-07 07:53 | 32.18035 | 120.57503 | 27321 ft | 435 kts | 274° |
| 2026-05-07 07:53 | 32.18312 | 120.53937 | 27496 ft | 439 kts | 274° |
| 2026-05-07 07:54 | 32.18606 | 120.50336 | 27536 ft | 441 kts | 274° |
| 2026-05-07 07:54 | 32.18905 | 120.46717 | 27546 ft | 446 kts | 274° |
| 2026-05-07 07:54 | 32.19209 | 120.43050 | 27562 ft | 450 kts | 274° |
| 2026-05-07 07:54 | 32.19512 | 120.39358 | 27581 ft | 455 kts | 274° |
| 2026-05-07 07:55 | 32.19815 | 120.35625 | 27573 ft | 457 kts | 274° |
| 2026-05-07 07:55 | 32.19852 | 120.31859 | 27545 ft | 460 kts | 264° |
| 2026-05-07 07:55 | 32.19330 | 120.28131 | 27580 ft | 462 kts | 257° |
| 2026-05-07 07:55 | 32.18444 | 120.24474 | 27571 ft | 463 kts | 252° |
| 2026-05-07 07:56 | 32.17145 | 120.20989 | 27554 ft | 466 kts | 243° |
| 2026-05-07 07:56 | 32.15569 | 120.17653 | 27556 ft | 466 kts | 243° |
| 2026-05-07 07:56 | 32.13983 | 120.14318 | 27540 ft | 466 kts | 243° |
| 2026-05-07 07:56 | 32.12413 | 120.10981 | 27564 ft | 465 kts | 243° |
| 2026-05-07 07:57 | 32.10856 | 120.07632 | 27550 ft | 466 kts | 243° |
| 2026-05-07 07:57 | 32.09311 | 120.04284 | 27560 ft | 465 kts | 243° |
| 2026-05-07 07:57 | 32.07771 | 120.00934 | 27561 ft | 464 kts | 243° |
| 2026-05-07 07:57 | 32.06231 | 119.97588 | 27559 ft | 464 kts | 243° |
| 2026-05-07 07:58 | 32.04691 | 119.94249 | 27548 ft | 463 kts | 243° |
| 2026-05-07 07:58 | 32.03182 | 119.90959 | 27551 ft | 463 kts | 244° |
| 2026-05-07 07:58 | 32.01672 | 119.87609 | 27549 ft | 463 kts | 244° |
| 2026-05-07 07:58 | 32.00149 | 119.84210 | 27550 ft | 462 kts | 244° |
| 2026-05-07 07:59 | 31.98648 | 119.80863 | 27538 ft | 463 kts | 244° |
| 2026-05-07 07:59 | 31.97141 | 119.77512 | 27546 ft | 463 kts | 244° |
| 2026-05-07 07:59 | 31.95648 | 119.74205 | 27552 ft | 463 kts | 244° |
| 2026-05-07 07:59 | 31.94135 | 119.70856 | 27562 ft | 464 kts | 244° |
| 2026-05-07 08:00 | 31.92647 | 119.67483 | 27558 ft | 464 kts | 245° |
| 2026-05-07 08:00 | 31.91191 | 119.64093 | 27555 ft | 464 kts | 245° |
| 2026-05-07 08:00 | 31.89743 | 119.60689 | 27557 ft | 465 kts | 245° |
| 2026-05-07 08:00 | 31.88294 | 119.57288 | 27562 ft | 465 kts | 245° |
| 2026-05-07 08:01 | 31.86838 | 119.53887 | 27560 ft | 465 kts | 245° |
| 2026-05-07 08:01 | 31.85376 | 119.50491 | 27558 ft | 466 kts | 245° |
| 2026-05-07 08:01 | 31.83910 | 119.47092 | 27537 ft | 466 kts | 245° |
| 2026-05-07 08:01 | 31.82441 | 119.43690 | 27551 ft | 466 kts | 245° |
| 2026-05-07 08:02 | 31.80971 | 119.40292 | 27552 ft | 467 kts | 245° |
| 2026-05-07 08:02 | 31.79496 | 119.36895 | 27554 ft | 467 kts | 245° |
| 2026-05-07 08:02 | 31.78006 | 119.33498 | 27569 ft | 467 kts | 245° |
| 2026-05-07 08:02 | 31.76512 | 119.30108 | 27574 ft | 467 kts | 245° |
| 2026-05-07 08:03 | 31.75016 | 119.26715 | 27571 ft | 468 kts | 245° |
| 2026-05-07 08:03 | 31.73519 | 119.23319 | 27567 ft | 468 kts | 245° |
| 2026-05-07 08:03 | 31.72022 | 119.19923 | 27568 ft | 468 kts | 245° |
| 2026-05-07 08:03 | 31.70528 | 119.16530 | 27571 ft | 467 kts | 245° |
| 2026-05-07 08:04 | 31.69035 | 119.13146 | 27576 ft | 467 kts | 245° |
| 2026-05-07 08:04 | 31.67554 | 119.09763 | 27562 ft | 465 kts | 247° |
| 2026-05-07 08:04 | 31.66426 | 119.06274 | 27574 ft | 462 kts | 256° |
| 2026-05-07 08:04 | 31.65775 | 119.02591 | 27579 ft | 460 kts | 262° |
| 2026-05-07 08:05 | 31.65455 | 118.98805 | 27573 ft | 461 kts | 268° |
| 2026-05-07 08:05 | 31.65483 | 118.95046 | 27569 ft | 461 kts | 272° |
| 2026-05-07 08:05 | 31.65732 | 118.91296 | 27575 ft | 461 kts | 275° |
| 2026-05-07 08:05 | 31.66072 | 118.87548 | 27569 ft | 462 kts | 275° |
| 2026-05-07 08:06 | 31.66423 | 118.83853 | 27569 ft | 462 kts | 275° |
| 2026-05-07 08:06 | 31.66762 | 118.80105 | 27568 ft | 462 kts | 275° |
| 2026-05-07 08:06 | 31.67076 | 118.76352 | 27568 ft | 462 kts | 275° |
| 2026-05-07 08:06 | 31.67370 | 118.72597 | 27569 ft | 462 kts | 274° |
| 2026-05-07 08:07 | 31.67653 | 118.68825 | 27566 ft | 462 kts | 274° |
| 2026-05-07 08:07 | 31.67927 | 118.65070 | 27574 ft | 462 kts | 274° |
| 2026-05-07 08:07 | 31.68199 | 118.61310 | 27573 ft | 462 kts | 274° |
| 2026-05-07 08:07 | 31.68469 | 118.57555 | 27569 ft | 462 kts | 274° |
| 2026-05-07 08:08 | 31.68739 | 118.53801 | 27573 ft | 461 kts | 274° |
| 2026-05-07 08:08 | 31.69009 | 118.50046 | 27574 ft | 461 kts | 274° |
| 2026-05-07 08:08 | 31.69278 | 118.46297 | 27577 ft | 461 kts | 274° |
| 2026-05-07 08:08 | 31.69546 | 118.42548 | 27585 ft | 461 kts | 274° |
| 2026-05-07 08:09 | 31.69814 | 118.38800 | 27580 ft | 461 kts | 274° |
| 2026-05-07 08:09 | 31.70080 | 118.35047 | 27582 ft | 461 kts | 274° |
| 2026-05-07 08:09 | 31.70344 | 118.31302 | 27584 ft | 461 kts | 274° |
| 2026-05-07 08:09 | 31.70608 | 118.27551 | 27585 ft | 461 kts | 274° |
| 2026-05-07 08:10 | 31.70871 | 118.23806 | 27581 ft | 460 kts | 274° |
| 2026-05-07 08:10 | 31.71132 | 118.20062 | 27584 ft | 460 kts | 274° |
| 2026-05-07 08:10 | 31.71386 | 118.16317 | 27586 ft | 460 kts | 273° |
| 2026-05-07 08:10 | 31.71417 | 118.12564 | 27577 ft | 460 kts | 267° |
| 2026-05-07 08:11 | 31.71167 | 118.08821 | 27587 ft | 460 kts | 264° |
| 2026-05-07 08:11 | 31.70730 | 118.05156 | 27597 ft | 460 kts | 261° |
| 2026-05-07 08:11 | 31.70020 | 118.01490 | 27590 ft | 460 kts | 258° |
| 2026-05-07 08:11 | 31.69248 | 117.97853 | 27600 ft | 460 kts | 257° |
| 2026-05-07 08:12 | 31.68463 | 117.94158 | 27587 ft | 460 kts | 258° |
| 2026-05-07 08:12 | 31.67706 | 117.90569 | 27588 ft | 459 kts | 258° |
| 2026-05-07 08:12 | 31.66943 | 117.86926 | 27583 ft | 460 kts | 258° |
| 2026-05-07 08:12 | 31.66184 | 117.83285 | 27605 ft | 460 kts | 258° |
| 2026-05-07 08:13 | 31.65425 | 117.79640 | 27591 ft | 460 kts | 258° |
| 2026-05-07 08:13 | 31.64667 | 117.75994 | 27589 ft | 460 kts | 258° |
| 2026-05-07 08:13 | 31.63909 | 117.72355 | 27592 ft | 459 kts | 258° |
| 2026-05-07 08:13 | 31.63149 | 117.68714 | 27598 ft | 459 kts | 258° |
| 2026-05-07 08:14 | 31.62389 | 117.65079 | 27597 ft | 459 kts | 258° |
| 2026-05-07 08:14 | 31.61627 | 117.61442 | 27595 ft | 459 kts | 258° |
| 2026-05-07 08:14 | 31.60864 | 117.57806 | 27601 ft | 459 kts | 258° |
| 2026-05-07 08:14 | 31.60143 | 117.54161 | 27609 ft | 459 kts | 259° |
| 2026-05-07 08:15 | 31.59505 | 117.50496 | 27603 ft | 459 kts | 260° |
| 2026-05-07 08:15 | 31.58893 | 117.46824 | 27591 ft | 459 kts | 260° |
| 2026-05-07 08:15 | 31.58275 | 117.43147 | 27597 ft | 459 kts | 260° |
| 2026-05-07 08:15 | 31.57644 | 117.39477 | 27603 ft | 459 kts | 260° |
| 2026-05-07 08:16 | 31.57004 | 117.35813 | 27602 ft | 459 kts | 260° |
| 2026-05-07 08:16 | 31.56358 | 117.32156 | 27604 ft | 458 kts | 260° |
| 2026-05-07 08:16 | 31.55711 | 117.28496 | 27604 ft | 458 kts | 260° |
| 2026-05-07 08:16 | 31.55060 | 117.24838 | 27600 ft | 458 kts | 259° |
| 2026-05-07 08:17 | 31.54408 | 117.21188 | 27608 ft | 458 kts | 259° |
| 2026-05-07 08:17 | 31.53754 | 117.17534 | 27613 ft | 458 kts | 259° |
| 2026-05-07 08:17 | 31.53099 | 117.13880 | 27613 ft | 458 kts | 259° |
| 2026-05-07 08:17 | 31.52442 | 117.10219 | 27614 ft | 458 kts | 259° |
| 2026-05-07 08:18 | 31.51787 | 117.06575 | 27629 ft | 458 kts | 259° |
| 2026-05-07 08:18 | 31.51129 | 117.02915 | 27610 ft | 458 kts | 259° |